Kalaheo, Hawaii
Current Conditions -  °F | °C
As of 4:53 AM on Thursday 30 Oct 2014 (Local Time) from PHLI Reporting Station
Broken Clouds Broken Clouds  
Wind Chill: 77°   Ceiling: 8000
Heat Index: 79°   Visibility: 10mi
Dew Point: 69°   Wind: 13mph
Humidity: 76%   Direction: 50°NE
Pressure: 30.07"   Gusts: NA
Location:  21.91°N, 159.5°W
Report Text: PHLI 301453Z 05011KT 10SM FEW020 SCT026 BKN080 25/21 A3007 RMK AO2 SLP181 60001 T02500206 56010 $
Loading
Personal Weather Stations






























Interactive Weather Map
Tropical Storm Tracking
New forecast layout! Learn more

10-Day Weather Forecast

Advertisements
Track Severe Weather on mobile